Main page
METAR-TAF:

Airports :

Viru-Viru, Bolivia

Viru Viru International Airport

latitude: 17-38S, longitude: 063-08W, elevation: 373 m

Current weather observation

The report was made 59 minutes ago, at 01:00 UTC
Wind 3 kt from the South/Southeast
Temperature 12°C
Humidity 94%
Pressure 1019 hPa
Visibility 10 km or more
Few clouds at a height of 2000 ft
Scattered clouds at a height of 20000 ft

METAR: SLVR 290100Z 16003KT 9999 FEW020 SCT200 12/11 Q1019

Time: 21:59 (01:59 UTC)

Forecast

The report was made 4 hours and 29 minutes ago, at 21:30 UTC
Forecast valid from 29 at 00 UTC to 29 at 24 UTC
Wind 6 kt from the North/Northwest
Visibility 10 km or more
Scattered clouds at a height of 7000 ft
Becoming
from 29 at 16 UTC to 29 at 20 UTC
Wind 16 kt from the North/Northwest
Few clouds at a height of 2700 ft
Broken clouds at a height of 7000 ft

TAF: SLVR 282130Z 2900/2924 34006KT 9999 SCT070 TX29/2919Z TN14/2911Z BECMG 2916/2920 34016KT FEW027 BKN070

METAR-TAF

Weather observations and forecasts of more than 4000 airports (METAR and TAF reports).

The available stations are represented by yellow and red dots on the map.

Hover mouse over dot to see the name of the station.

Then click to see weather observations and forecasts.

To change the map : click on the green buttons with a black cross to zoom in, on the green button with a dash to zoom out, or on the green arrows for adjacent maps.


METAR-TAF: